TimeCST,TemperatureF,Dew PointF,Humidity,Sea Level PressureIn,VisibilityMPH,Wind Direction,Wind SpeedMPH,Gust SpeedMPH,PrecipitationIn,Events,Conditions,WindDirDegrees,DateUTC
12:15 AM,24.8,17.6,74,30.24,10.0,South,5.8,-,N/A,,Clear,180,2013-12-11 06:15:00
12:35 AM,23.0,17.6,80,30.24,10.0,SSW,5.8,-,N/A,,Clear,200,2013-12-11 06:35:00
12:55 AM,21.2,15.8,80,30.26,10.0,Calm,Calm,-,N/A,,Clear,0,2013-12-11 06:55:00
1:15 AM,19.4,15.8,86,30.24,10.0,South,5.8,-,N/A,,Clear,170,2013-12-11 07:15:00
1:35 AM,17.6,14.0,86,30.26,10.0,NW,3.5,-,N/A,,Clear,320,2013-12-11 07:35:00
1:55 AM,17.6,12.2,79,30.27,10.0,Calm,Calm,-,N/A,,Clear,0,2013-12-11 07:55:00
2:15 AM,17.6,15.8,93,30.27,10.0,Calm,Calm,-,N/A,,Clear,0,2013-12-11 08:15:00
2:35 AM,17.6,15.8,93,30.27,8.0,Calm,Calm,-,N/A,,Clear,0,2013-12-11 08:35:00
2:55 AM,19.4,15.8,86,30.28,7.0,SSW,4.6,-,N/A,,Clear,200,2013-12-11 08:55:00
3:15 AM,19.4,15.8,86,30.29,6.0,Calm,Calm,-,N/A,,Clear,0,2013-12-11 09:15:00
3:35 AM,15.8,10.4,79,30.30,5.0,Calm,Calm,-,N/A,,Clear,0,2013-12-11 09:35:00
3:55 AM,15.8,10.4,79,30.29,3.0,Calm,Calm,-,N/A,,Clear,0,2013-12-11 09:55:00
4:15 AM,17.6,10.4,73,30.29,1.8,SE,3.5,-,N/A,,Clear,140,2013-12-11 10:15:00
4:35 AM,17.6,14.0,86,30.29,3.0,South,3.5,-,N/A,,Scattered Clouds,180,2013-12-11 10:35:00
4:55 AM,19.4,17.6,93,30.30,0.2,Calm,Calm,-,N/A,,Overcast,0,2013-12-11 10:55:00
5:15 AM,17.6,15.8,93,30.31,0.2,Calm,Calm,-,N/A,,Overcast,0,2013-12-11 11:15:00
5:35 AM,17.6,15.8,93,30.32,0.2,Calm,Calm,-,N/A,,Overcast,0,2013-12-11 11:35:00
5:55 AM,17.6,14.0,86,30.33,0.2,Calm,Calm,-,N/A,,Overcast,0,2013-12-11 11:55:00
6:15 AM,17.6,12.2,79,30.34,0.2,Calm,Calm,-,N/A,,Overcast,0,2013-12-11 12:15:00
6:35 AM,15.8,12.2,86,30.34,0.2,Calm,Calm,-,N/A,,Overcast,0,2013-12-11 12:35:00
6:55 AM,15.8,12.2,86,30.36,0.2,Calm,Calm,-,N/A,,Mostly Cloudy,0,2013-12-11 12:55:00
7:15 AM,15.8,14.0,93,30.37,0.2,Calm,Calm,-,N/A,,Unknown,0,2013-12-11 13:15:00
7:35 AM,15.8,10.4,79,30.38,2.5,Calm,Calm,-,N/A,,Clear,0,2013-12-11 13:35:00
7:55 AM,15.8,12.2,86,30.40,4.0,Calm,Calm,-,N/A,,Clear,0,2013-12-11 13:55:00
8:15 AM,17.6,14.0,86,30.41,4.0,Calm,Calm,-,N/A,,Clear,0,2013-12-11 14:15:00
8:35 AM,19.4,17.6,93,30.43,2.5,Calm,Calm,-,N/A,,Clear,0,2013-12-11 14:35:00
8:55 AM,21.2,17.6,86,30.44,3.0,Calm,Calm,-,N/A,,Clear,0,2013-12-11 14:55:00
9:15 AM,24.8,21.2,86,30.45,4.0,Calm,Calm,-,N/A,,Clear,0,2013-12-11 15:15:00
9:35 AM,24.8,23.0,93,30.47,5.0,Calm,Calm,-,N/A,,Clear,0,2013-12-11 15:35:00
9:55 AM,26.6,24.8,93,30.47,8.0,NNW,5.8,-,N/A,,Clear,340,2013-12-11 15:55:00
10:15 AM,26.6,24.8,93,30.48,10.0,North,9.2,-,N/A,,Clear,350,2013-12-11 16:15:00
10:35 AM,26.6,24.8,93,30.48,10.0,North,9.2,-,N/A,,Clear,350,2013-12-11 16:35:00
10:55 AM,28.4,23.0,80,30.49,10.0,North,10.4,-,N/A,,Clear,10,2013-12-11 16:55:00
11:15 AM,28.4,21.2,74,30.48,10.0,NNE,12.7,-,N/A,,Clear,20,2013-12-11 17:15:00
11:35 AM,30.2,21.2,69,30.47,10.0,NNE,9.2,-,N/A,,Clear,30,2013-12-11 17:35:00
11:55 AM,30.2,19.4,64,30.47,10.0,NE,8.1,-,N/A,,Clear,40,2013-12-11 17:55:00
12:15 PM,32.0,19.4,60,30.46,10.0,NE,9.2,-,N/A,,Clear,50,2013-12-11 18:15:00
12:35 PM,33.8,21.2,60,30.46,10.0,NE,11.5,-,N/A,,Clear,40,2013-12-11 18:35:00
12:55 PM,33.8,21.2,60,30.46,10.0,NE,11.5,-,N/A,,Clear,40,2013-12-11 18:55:00
1:15 PM,33.8,21.2,60,30.47,10.0,NE,13.8,-,N/A,,Clear,40,2013-12-11 19:15:00
1:35 PM,33.8,19.4,56,30.47,10.0,NNE,12.7,-,0.01,,Clear,30,2013-12-11 19:35:00
1:55 PM,33.8,19.4,56,30.47,10.0,NE,9.2,-,0.01,,Clear,40,2013-12-11 19:55:00
2:15 PM,33.8,19.4,56,30.47,10.0,NNE,12.7,-,N/A,,Clear,20,2013-12-11 20:15:00
2:35 PM,33.8,19.4,56,30.48,10.0,NE,6.9,-,N/A,,Clear,50,2013-12-11 20:35:00
2:55 PM,33.8,17.6,52,30.48,10.0,North,8.1,-,N/A,,Clear,10,2013-12-11 20:55:00
3:15 PM,33.8,17.6,52,30.49,10.0,North,12.7,-,N/A,,Clear,10,2013-12-11 21:15:00
3:35 PM,33.8,17.6,52,30.49,10.0,NNE,11.5,-,N/A,,Clear,20,2013-12-11 21:35:00
3:55 PM,33.8,17.6,52,30.49,10.0,North,9.2,-,N/A,,Clear,10,2013-12-11 21:55:00
4:15 PM,32.0,17.6,55,30.49,10.0,NNE,10.4,-,N/A,,Clear,20,2013-12-11 22:15:00
4:35 PM,30.2,17.6,60,30.50,10.0,North,10.4,-,N/A,,Clear,10,2013-12-11 22:35:00
4:55 PM,30.2,17.6,60,30.51,10.0,North,8.1,-,N/A,,Clear,10,2013-12-11 22:55:00
5:15 PM,28.4,15.8,59,30.51,10.0,North,8.1,-,N/A,,Clear,10,2013-12-11 23:15:00
5:35 PM,28.4,15.8,59,30.51,10.0,North,9.2,-,N/A,,Clear,10,2013-12-11 23:35:00
5:55 PM,28.4,14.0,55,30.52,10.0,North,9.2,-,N/A,,Clear,10,2013-12-11 23:55:00
6:15 PM,26.6,12.2,55,30.53,10.0,North,6.9,-,N/A,,Clear,10,2013-12-12 00:15:00
6:35 PM,26.6,12.2,55,30.53,10.0,North,5.8,-,N/A,,Clear,10,2013-12-12 00:35:00
6:55 PM,26.6,14.0,59,30.54,10.0,North,4.6,-,N/A,,Clear,10,2013-12-12 00:55:00
7:15 PM,26.6,12.2,55,30.55,10.0,North,5.8,-,N/A,,Clear,10,2013-12-12 01:15:00
7:35 PM,26.6,14.0,59,30.55,8.0,North,5.8,-,N/A,,Clear,10,2013-12-12 01:35:00
7:55 PM,26.6,12.2,55,30.56,10.0,North,5.8,-,N/A,,Clear,10,2013-12-12 01:55:00
8:15 PM,24.8,12.2,59,30.57,10.0,North,4.6,-,N/A,,Clear,10,2013-12-12 02:15:00
8:35 PM,24.8,12.2,59,30.57,10.0,North,4.6,-,N/A,,Clear,10,2013-12-12 02:35:00
8:55 PM,24.8,12.2,59,30.58,10.0,North,4.6,-,N/A,,Clear,10,2013-12-12 02:55:00
9:15 PM,24.8,10.4,54,30.57,10.0,NE,3.5,-,N/A,,Clear,40,2013-12-12 03:15:00
9:35 PM,24.8,12.2,59,30.57,10.0,ENE,3.5,-,N/A,,Clear,60,2013-12-12 03:35:00
9:55 PM,23.0,12.2,63,30.57,10.0,ENE,3.5,-,N/A,,Clear,60,2013-12-12 03:55:00
10:15 PM,21.2,12.2,68,30.56,10.0,East,3.5,-,N/A,,Clear,80,2013-12-12 04:15:00
10:35 PM,19.4,10.4,68,30.57,10.0,Calm,Calm,-,N/A,,Clear,0,2013-12-12 04:35:00
10:55 PM,19.4,12.2,74,30.57,10.0,NE,3.5,-,N/A,,Clear,50,2013-12-12 04:55:00
11:15 PM,21.2,12.2,68,30.57,10.0,NE,3.5,-,N/A,,Clear,50,2013-12-12 05:15:00
11:35 PM,19.4,10.4,68,30.56,10.0,NE,4.6,-,N/A,,Clear,50,2013-12-12 05:35:00
11:55 PM,21.2,10.4,63,30.56,10.0,NE,5.8,-,N/A,,Clear,50,2013-12-12 05:55:00